Time;durP1;ratioP1;P1;durP2;ratioP2;P2;SDS_P1;SDS_P2;PMS_P1;PMS_P2;Temp;Humidity;BMP_temperature;BMP_pressure;BME280_temperature;BME280_humidity;BME280_pressure;Samples;Min_cycle;Max_cycle;Signal;HPM_P1;HPM_P2
2023/01/11 00:00:18;;;;;;;8.85;7.95;;;8.20;99.90;;;;;;5034032;28;20038;-38
2023/01/11 00:02:45;;;;;;;12.80;10.00;;;8.30;99.90;;;;;;5033926;28;20045;-38
2023/01/11 00:05:10;;;;;;;9.82;8.27;;;8.30;99.90;;;;;;5033640;28;20305;-39
2023/01/11 00:07:37;;;;;;;9.35;8.00;;;8.30;99.90;;;;;;5017273;28;20052;-37
2023/01/11 00:10:04;;;;;;;10.25;8.60;;;8.40;99.90;;;;;;5033877;28;20211;-38
2023/01/11 00:12:30;;;;;;;11.20;8.75;;;8.40;99.90;;;;;;5033552;28;20067;-38
2023/01/11 00:14:56;;;;;;;11.23;8.68;;;8.40;99.90;;;;;;5033547;28;20041;-38
2023/01/11 00:17:22;;;;;;;9.50;8.48;;;8.40;99.90;;;;;;5033465;28;20045;-38
2023/01/11 00:19:48;;;;;;;11.10;9.20;;;8.50;99.90;;;;;;5026475;28;20034;-38
2023/01/11 00:22:13;;;;;;;11.63;8.85;;;8.50;99.90;;;;;;5013529;28;20046;-38
2023/01/11 00:24:39;;;;;;;8.98;8.02;;;8.50;99.90;;;;;;5018082;28;20087;-38
2023/01/11 00:27:05;;;;;;;11.35;9.20;;;8.50;99.90;;;;;;5033289;28;20044;-38
2023/01/11 00:29:31;;;;;;;12.07;8.25;;;8.60;99.90;;;;;;5017294;28;20030;-38
2023/01/11 00:31:56;;;;;;;9.90;8.85;;;8.60;99.90;;;;;;5016192;28;20076;-38
2023/01/11 00:34:22;;;;;;;9.18;8.18;;;8.70;99.90;;;;;;5033550;28;20543;-38
2023/01/11 00:36:48;;;;;;;10.65;8.50;;;8.70;99.90;;;;;;5034394;28;20120;-38
2023/01/11 00:39:13;;;;;;;10.27;7.78;;;8.70;99.90;;;;;;5033327;28;20049;-38
2023/01/11 00:50:00;;;;;;;10.10;8.32;;;8.80;99.90;;;;;;5034356;28;20127;-38
2023/01/11 00:52:26;;;;;;;8.85;7.72;;;8.80;99.90;;;;;;5033129;28;20072;-38
2023/01/11 00:54:51;;;;;;;11.05;8.02;;;8.80;99.90;;;;;;5033110;28;20126;-38
2023/01/11 00:57:17;;;;;;;9.18;8.05;;;8.80;99.90;;;;;;5031753;28;20487;-38
2023/01/11 00:59:43;;;;;;;8.60;7.45;;;8.90;99.90;;;;;;5014445;28;20046;-38
2023/01/11 01:02:10;;;;;;;9.25;8.23;;;8.90;99.90;;;;;;5018630;28;20491;-38
2023/01/11 01:04:37;;;;;;;9.75;8.35;;;8.90;99.90;;;;;;5013034;28;20042;-38
2023/01/11 01:07:03;;;;;;;9.02;7.72;;;8.90;99.90;;;;;;5029467;28;20112;-39
2023/01/11 01:09:29;;;;;;;8.95;7.93;;;8.90;99.90;;;;;;5030714;28;20111;-38
2023/01/11 01:11:55;;;;;;;9.50;7.85;;;8.90;99.90;;;;;;5032726;28;20482;-38
2023/01/11 01:14:24;;;;;;;10.93;7.75;;;8.90;99.90;;;;;;5031086;28;20077;-38
2023/01/11 01:16:59;;;;;;;7.25;6.50;;;8.90;99.90;;;;;;5012875;28;20060;-38
2023/01/11 01:19:28;;;;;;;8.07;7.10;;;9.00;99.90;;;;;;5012627;28;20041;-38
2023/01/11 01:21:55;;;;;;;8.15;7.35;;;9.00;99.90;;;;;;5012370;28;20045;-38
2023/01/11 01:24:22;;;;;;;9.77;7.15;;;9.00;99.90;;;;;;5012766;28;20033;-38
2023/01/11 01:26:48;;;;;;;8.75;7.82;;;9.00;99.90;;;;;;5012724;28;20041;-38
2023/01/11 01:29:14;;;;;;;9.50;8.38;;;9.00;99.90;;;;;;5026597;28;20490;-39
2023/01/11 01:31:42;;;;;;;10.82;8.02;;;9.10;99.90;;;;;;5031389;28;20072;-38
2023/01/11 01:34:11;;;;;;;11.52;9.40;;;9.10;99.90;;;;;;5025609;28;20395;-38
2023/01/11 01:36:37;;;;;;;9.57;8.55;;;9.10;99.90;;;;;;5017358;28;20453;-38
2023/01/11 01:39:04;;;;;;;11.82;7.35;;;9.10;99.90;;;;;;5032211;28;20041;-38
2023/01/11 01:41:30;;;;;;;11.82;8.27;;;9.10;99.90;;;;;;5032198;28;20414;-38
2023/01/11 01:43:59;;;;;;;11.43;7.80;;;9.10;99.90;;;;;;5032042;28;20046;-38
2023/01/11 01:46:30;;;;;;;10.52;8.50;;;9.10;99.90;;;;;;5030319;28;20052;-38
2023/01/11 01:49:04;;;;;;;10.23;8.57;;;9.20;99.90;;;;;;5014318;28;20091;-38
2023/01/11 01:51:53;;;;;;;9.68;8.23;;;9.30;99.90;;;;;;5032042;28;20080;-38
2023/01/11 01:54:28;;;;;;;8.70;7.63;;;9.30;99.90;;;;;;5012944;28;20049;-38
2023/01/11 01:57:05;;;;;;;8.85;7.88;;;9.30;99.90;;;;;;5012267;28;20144;-38
2023/01/11 01:59:32;;;;;;;11.73;8.95;;;9.40;99.90;;;;;;5023294;28;20120;-38
2023/01/11 02:01:59;;;;;;;12.93;8.75;;;9.40;99.90;;;;;;5031619;28;20041;-38
2023/01/11 02:04:55;;;;;;;9.10;7.60;;;9.40;99.90;;;;;;5031756;28;20038;-38
2023/01/11 02:07:34;;;;;;;10.13;8.02;;;9.40;99.90;;;;;;5022766;28;20041;-38
2023/01/11 02:10:18;;;;;;;10.18;8.35;;;9.40;99.90;;;;;;5031876;28;20037;-39
2023/01/11 02:12:54;;;;;;;11.10;8.13;;;9.40;99.90;;;;;;5031245;28;20042;-38
2023/01/11 02:15:22;;;;;;;11.52;7.55;;;9.40;99.90;;;;;;5031416;28;20072;-38
2023/01/11 02:17:48;;;;;;;9.35;8.00;;;9.40;99.90;;;;;;5032650;28;20045;-38
2023/01/11 02:20:44;;;;;;;9.88;7.10;;;9.50;99.90;;;;;;5031536;28;20041;-38
2023/01/11 02:23:30;;;;;;;12.45;7.82;;;9.60;99.90;;;;;;5048031;28;20145;-38
2023/01/11 02:26:26;;;;;;;10.13;7.72;;;9.60;99.90;;;;;;5048059;28;20129;-38
2023/01/11 02:29:10;;;;;;;11.43;7.82;;;9.60;99.90;;;;;;5048014;28;20116;-38
2023/01/11 02:31:44;;;;;;;9.95;7.68;;;9.60;99.90;;;;;;5047656;28;20048;-38
2023/01/11 02:34:25;;;;;;;9.10;7.40;;;9.60;99.90;;;;;;5031295;28;20483;-38
2023/01/11 02:37:25;;;;;;;9.35;7.57;;;9.70;99.90;;;;;;5047955;28;20095;-38
2023/01/11 02:39:57;;;;;;;9.25;6.80;;;9.70;99.90;;;;;;5047460;28;20047;-38
2023/01/11 02:45:10;;;;;;;8.88;7.07;;;9.70;99.90;;;;;;5032325;28;20096;-39
2023/01/11 02:47:48;;;;;;;7.47;5.60;;;9.80;99.90;;;;;;5047524;28;20029;-38
2023/01/11 02:50:45;;;;;;;8.18;6.05;;;9.80;99.90;;;;;;5030802;28;20120;-38
2023/01/11 02:53:11;;;;;;;6.60;4.78;;;9.80;99.90;;;;;;5047735;28;20052;-38
2023/01/11 02:55:42;;;;;;;6.50;5.72;;;9.80;99.90;;;;;;5030646;28;20490;-39
2023/01/11 02:58:10;;;;;;;6.43;5.65;;;9.80;99.90;;;;;;5002987;28;20399;-38
2023/01/11 03:00:39;;;;;;;6.78;5.90;;;9.90;99.90;;;;;;4991199;28;20046;-38
2023/01/11 03:03:17;;;;;;;5.45;4.78;;;9.90;99.90;;;;;;4992711;28;20069;-38
2023/01/11 03:05:52;;;;;;;6.20;5.40;;;9.90;99.90;;;;;;5005664;28;20045;-38
2023/01/11 03:08:31;;;;;;;5.60;5.10;;;9.90;99.90;;;;;;5011363;28;20069;-38
2023/01/11 03:14:23;;;;;;;6.53;5.20;;;9.90;99.90;;;;;;5019507;28;20060;-39
2023/01/11 03:16:58;;;;;;;5.50;4.47;;;10.00;99.90;;;;;;5030183;28;20053;-38
2023/01/11 03:19:50;;;;;;;6.38;4.43;;;9.90;99.90;;;;;;5047466;28;20049;-38
2023/01/11 03:22:26;;;;;;;5.60;4.70;;;10.00;99.90;;;;;;5030661;28;20048;-38
2023/01/11 03:25:06;;;;;;;5.13;4.63;;;10.00;99.90;;;;;;5030782;28;20479;-38
2023/01/11 03:28:01;;;;;;;5.97;4.18;;;10.00;99.90;;;;;;5047375;28;20037;-39
2023/01/11 03:30:40;;;;;;;6.43;4.13;;;10.00;99.90;;;;;;5030284;28;20065;-38
2023/01/11 03:33:36;;;;;;;5.00;4.25;;;10.00;99.90;;;;;;5047257;28;20073;-39
2023/01/11 03:36:16;;;;;;;4.72;4.00;;;10.00;99.90;;;;;;5029882;28;20050;-39
2023/01/11 03:38:48;;;;;;;5.20;4.03;;;10.00;99.90;;;;;;5030597;28;20033;-39
2023/01/11 03:41:20;;;;;;;4.97;4.47;;;10.10;99.90;;;;;;5030512;28;20505;-38
2023/01/11 03:43:48;;;;;;;6.28;4.30;;;10.10;99.90;;;;;;5030296;28;20037;-39
2023/01/11 03:46:28;;;;;;;6.78;4.50;;;10.10;99.90;;;;;;5030408;28;20034;-38
2023/01/11 03:48:57;;;;;;;5.95;4.93;;;10.10;99.90;;;;;;5030646;28;20042;-38
2023/01/11 03:51:28;;;;;;;4.20;3.58;;;10.10;99.90;;;;;;5030459;28;20037;-39
2023/01/11 03:54:07;;;;;;;4.80;4.25;;;10.10;99.90;;;;;;5030586;28;20041;-39
2023/01/11 03:56:38;;;;;;;5.50;4.43;;;10.10;99.90;;;;;;5033581;28;20275;-38
2023/01/11 03:59:04;;;;;;;5.60;5.03;;;10.20;99.90;;;;;;5050795;28;20091;-38
2023/01/11 04:01:30;;;;;;;9.95;7.10;;;10.10;99.90;;;;;;5034030;28;20042;-39
2023/01/11 04:03:56;;;;;;;23.08;15.48;;;10.10;99.90;;;;;;5034077;28;20042;-38
2023/01/11 04:06:23;;;;;;;9.23;6.57;;;10.10;99.90;;;;;;5034070;28;20042;-38
2023/01/11 04:08:49;;;;;;;32.30;20.80;;;10.20;99.90;;;;;;5034027;28;20191;-39
2023/01/11 04:11:15;;;;;;;12.68;9.57;;;10.20;99.90;;;;;;5033897;28;20499;-38
2023/01/11 04:13:41;;;;;;;6.85;5.85;;;10.20;99.90;;;;;;5033004;28;20046;-38
2023/01/11 04:16:06;;;;;;;9.48;7.25;;;10.20;99.90;;;;;;5016336;28;20042;-39
2023/01/11 04:18:32;;;;;;;5.20;4.03;;;10.20;99.90;;;;;;5022592;28;20049;-40
2023/01/11 04:20:58;;;;;;;15.23;12.02;;;10.30;99.90;;;;;;5000499;28;20454;-39
2023/01/11 04:23:24;;;;;;;4.88;4.38;;;10.30;99.90;;;;;;5015730;28;20052;-38
2023/01/11 04:25:50;;;;;;;4.97;4.47;;;10.30;99.90;;;;;;5013946;28;20042;-38
2023/01/11 04:28:16;;;;;;;4.40;4.00;;;10.30;99.90;;;;;;5012002;28;20088;-38
2023/01/11 04:30:41;;;;;;;5.25;4.47;;;10.30;99.90;;;;;;4977620;28;20386;-38
2023/01/11 04:33:09;;;;;;;5.20;4.70;;;10.30;99.90;;;;;;4994134;28;20041;-38
2023/01/11 04:35:35;;;;;;;4.22;3.40;;;10.30;99.90;;;;;;5010387;28;20488;-38
2023/01/11 04:38:01;;;;;;;3.75;3.30;;;10.30;99.90;;;;;;5010202;28;20093;-38
2023/01/11 04:40:26;;;;;;;5.22;3.42;;;10.40;99.90;;;;;;4995277;28;20042;-38
2023/01/11 04:42:52;;;;;;;3.90;3.50;;;10.30;99.90;;;;;;4993881;28;20508;-38
2023/01/11 04:45:18;;;;;;;3.80;3.40;;;10.30;99.90;;;;;;4993945;28;20514;-38
2023/01/11 04:47:44;;;;;;;3.55;3.25;;;10.40;99.90;;;;;;5009271;28;20037;-38
2023/01/11 04:50:10;;;;;;;5.07;3.60;;;10.40;99.90;;;;;;5033293;28;20033;-38
2023/01/11 04:52:36;;;;;;;4.28;3.65;;;10.40;99.90;;;;;;5033099;28;20040;-39
2023/01/11 04:55:03;;;;;;;5.55;5.00;;;10.40;99.90;;;;;;5016370;28;20073;-39
2023/01/11 04:57:28;;;;;;;4.57;3.95;;;10.40;99.90;;;;;;5016371;28;20088;-39
2023/01/11 04:59:54;;;;;;;5.65;4.70;;;10.40;99.90;;;;;;5013306;28;20076;-39
2023/01/11 05:02:20;;;;;;;5.35;4.70;;;10.50;99.90;;;;;;5028783;28;20037;-39
2023/01/11 05:04:45;;;;;;;5.88;4.13;;;10.50;99.90;;;;;;5026118;28;20047;-39
2023/01/11 05:07:11;;;;;;;7.13;5.60;;;10.50;99.90;;;;;;5012650;28;20073;-39
2023/01/11 05:09:37;;;;;;;8.05;5.80;;;10.50;99.90;;;;;;5025377;28;20069;-38
2023/01/11 05:12:03;;;;;;;7.78;4.60;;;10.50;99.90;;;;;;5049302;28;20445;-38
2023/01/11 05:14:29;;;;;;;11.20;5.88;;;10.60;99.90;;;;;;5012151;28;20034;-38
2023/01/11 05:16:54;;;;;;;7.72;6.38;;;10.50;99.90;;;;;;5030016;28;20488;-38
2023/01/11 05:19:20;;;;;;;10.38;7.03;;;10.60;99.90;;;;;;5012619;28;20038;-38
2023/01/11 05:21:46;;;;;;;9.85;5.82;;;10.50;99.90;;;;;;5020680;28;20037;-38
2023/01/11 05:24:14;;;;;;;9.88;6.03;;;10.60;99.90;;;;;;5032421;28;20195;-38
2023/01/11 05:26:42;;;;;;;9.93;7.22;;;10.60;99.90;;;;;;5032898;28;20040;-38
2023/01/11 05:29:11;;;;;;;12.80;7.35;;;10.60;99.90;;;;;;5023280;28;20479;-38
2023/01/11 05:31:39;;;;;;;17.05;7.20;;;10.60;99.90;;;;;;5025860;28;20041;-38
2023/01/11 05:34:06;;;;;;;15.98;8.05;;;10.60;99.90;;;;;;5012610;28;20045;-38
2023/01/11 05:36:32;;;;;;;15.07;7.82;;;10.60;99.90;;;;;;5012546;28;20107;-38
2023/01/11 05:38:58;;;;;;;13.13;7.03;;;10.60;99.90;;;;;;5012169;28;20137;-38
2023/01/11 05:41:26;;;;;;;13.07;6.95;;;10.60;99.90;;;;;;5012104;28;20120;-38
2023/01/11 05:46:39;;;;;;;13.20;7.22;;;10.70;99.90;;;;;;5013335;28;20483;-38
2023/01/11 05:49:06;;;;;;;14.25;7.45;;;10.70;99.90;;;;;;5012055;28;20104;-37
2023/01/11 05:51:32;;;;;;;12.60;7.60;;;10.70;99.90;;;;;;5012334;28;20081;-38
2023/01/11 05:54:00;;;;;;;15.15;7.95;;;10.70;99.90;;;;;;5021386;28;20041;-38
2023/01/11 05:56:26;;;;;;;13.05;7.05;;;10.60;99.90;;;;;;5031907;28;20041;-39
2023/01/11 05:58:52;;;;;;;15.85;7.10;;;10.60;99.90;;;;;;5031907;28;20475;-38
2023/01/11 06:01:20;;;;;;;14.55;6.28;;;10.60;99.90;;;;;;5031916;28;20037;-38
2023/01/11 06:03:47;;;;;;;18.02;6.22;;;10.60;99.90;;;;;;5013318;28;20575;-38
2023/01/11 06:06:14;;;;;;;14.25;5.90;;;10.60;99.90;;;;;;4995329;28;20077;-38
2023/01/11 06:08:39;;;;;;;15.20;6.25;;;10.60;99.90;;;;;;5012037;28;20483;-38
2023/01/11 06:11:05;;;;;;;18.65;5.90;;;10.60;99.90;;;;;;5011514;28;20099;-39
2023/01/11 06:13:32;;;;;;;20.05;5.68;;;10.60;99.90;;;;;;4999866;28;20046;-38
2023/01/11 06:16:11;;;;;;;18.33;5.25;;;10.50;99.90;;;;;;4992378;28;20500;-38
2023/01/11 06:18:40;;;;;;;14.35;4.50;;;10.50;99.90;;;;;;4991309;28;20177;-38
2023/01/11 06:21:07;;;;;;;16.98;4.35;;;10.50;99.90;;;;;;4991581;28;20042;-38
2023/01/11 06:23:35;;;;;;;14.68;4.80;;;10.50;99.90;;;;;;4991971;28;20488;-38
2023/01/11 06:26:03;;;;;;;20.40;5.53;;;10.50;99.90;;;;;;5003046;28;20044;-38
2023/01/11 06:28:29;;;;;;;21.70;5.28;;;10.40;99.90;;;;;;5045130;28;20164;-38
2023/01/11 06:30:56;;;;;;;22.10;4.90;;;10.50;99.90;;;;;;5012530;28;20074;-38
2023/01/11 06:33:24;;;;;;;17.35;3.97;;;10.40;99.90;;;;;;4992090;28;20042;-38
2023/01/11 06:35:50;;;;;;;16.58;4.43;;;10.40;99.90;;;;;;5000743;28;20042;-39
2023/01/11 06:38:17;;;;;;;20.10;5.57;;;10.40;99.90;;;;;;4995632;28;20043;-39
2023/01/11 06:40:59;;;;;;;13.63;4.60;;;10.40;99.90;;;;;;4991846;28;20053;-39
2023/01/11 06:43:27;;;;;;;22.83;4.28;;;10.30;99.90;;;;;;5004409;28;20526;-38
2023/01/11 06:45:53;;;;;;;18.15;4.20;;;10.30;99.90;;;;;;5011474;28;20387;-38
2023/01/11 06:48:21;;;;;;;19.45;4.68;;;10.20;99.90;;;;;;5009698;28;20037;-39
2023/01/11 06:50:47;;;;;;;15.73;4.70;;;10.20;99.90;;;;;;4991815;28;20486;-38
2023/01/11 06:53:13;;;;;;;23.23;5.03;;;10.20;99.90;;;;;;4992873;28;20046;-38
2023/01/11 06:55:39;;;;;;;18.85;4.20;;;10.20;99.90;;;;;;4991719;28;20042;-38
2023/01/11 06:58:05;;;;;;;19.92;5.15;;;10.20;99.90;;;;;;4991739;28;20109;-38
2023/01/11 07:00:32;;;;;;;23.92;5.00;;;10.20;99.90;;;;;;5002918;28;20518;-39
2023/01/11 07:03:04;;;;;;;25.80;4.70;;;10.20;99.90;;;;;;5027603;28;20030;-38
2023/01/11 07:05:35;;;;;;;18.05;4.18;;;10.20;99.90;;;;;;5027285;28;20038;-38
2023/01/11 07:08:01;;;;;;;20.15;4.38;;;10.20;99.90;;;;;;5025446;28;20034;-38
2023/01/11 07:10:27;;;;;;;22.13;5.10;;;10.20;99.90;;;;;;5009166;28;20042;-39
2023/01/11 07:12:53;;;;;;;20.58;5.40;;;10.20;99.90;;;;;;5018644;28;20104;-38
2023/01/11 07:15:19;;;;;;;20.70;4.85;;;10.10;99.90;;;;;;5030898;28;20455;-39
2023/01/11 07:17:47;;;;;;;24.85;5.13;;;10.20;99.90;;;;;;5030787;28;20048;-38
2023/01/11 07:20:13;;;;;;;23.35;4.75;;;10.10;99.90;;;;;;5024835;28;20568;-38
2023/01/11 07:22:39;;;;;;;23.83;4.53;;;10.10;99.90;;;;;;5010911;28;20121;-38
2023/01/11 07:25:05;;;;;;;20.40;5.40;;;10.10;99.90;;;;;;5010472;28;20396;-40
2023/01/11 07:27:31;;;;;;;24.77;5.30;;;10.10;99.90;;;;;;5006887;28;20037;-42
2023/01/11 07:30:00;;;;;;;19.15;5.70;;;10.00;99.90;;;;;;5007340;28;20045;-43
2023/01/11 07:32:27;;;;;;;27.65;5.85;;;10.10;99.90;;;;;;5006605;28;20038;-43
2023/01/11 07:34:53;;;;;;;18.77;5.25;;;10.10;99.90;;;;;;5005243;28;20046;-40
2023/01/11 07:37:19;;;;;;;23.52;5.22;;;10.00;99.90;;;;;;5007348;28;20033;-39
2023/01/11 07:39:45;;;;;;;24.13;5.20;;;10.00;99.90;;;;;;4993879;28;20038;-39
2023/01/11 07:44:56;;;;;;;25.02;5.30;;;10.00;99.90;;;;;;4996379;28;20369;-39
2023/01/11 07:47:22;;;;;;;19.67;5.68;;;10.10;99.90;;;;;;4994881;28;20073;-39
2023/01/11 07:49:47;;;;;;;20.17;6.07;;;10.10;99.90;;;;;;4995114;28;20053;-39
2023/01/11 07:52:13;;;;;;;24.10;5.38;;;10.10;99.90;;;;;;4994962;28;20038;-39
2023/01/11 07:54:39;;;;;;;21.67;5.50;;;10.10;99.90;;;;;;4994631;28;20078;-39
2023/01/11 07:57:05;;;;;;;23.52;6.97;;;10.10;99.90;;;;;;4994956;28;20085;-39
2023/01/11 07:59:31;;;;;;;23.80;5.43;;;10.20;99.90;;;;;;4994973;28;20552;-39
2023/01/11 08:01:56;;;;;;;18.63;5.78;;;10.10;99.90;;;;;;4994651;28;20046;-39
2023/01/11 08:04:22;;;;;;;24.85;5.75;;;10.10;99.90;;;;;;5004529;28;20038;-41
2023/01/11 08:06:48;;;;;;;19.55;4.75;;;10.10;99.90;;;;;;4994082;28;20391;-41
2023/01/11 08:09:13;;;;;;;21.52;4.63;;;10.10;99.90;;;;;;5013064;28;20065;-42
2023/01/11 08:14:39;;;;;;;20.17;4.95;;;10.00;99.90;;;;;;4995790;28;20056;-39
2023/01/11 08:17:13;;;;;;;16.63;3.53;;;10.00;99.90;;;;;;4994391;28;20053;-39
2023/01/11 08:19:39;;;;;;;20.92;4.55;;;9.90;99.90;;;;;;4994702;28;20049;-38
2023/01/11 08:22:05;;;;;;;13.88;3.58;;;9.90;99.90;;;;;;4994387;28;20050;-39
2023/01/11 08:24:31;;;;;;;15.95;3.33;;;9.80;99.90;;;;;;4994488;28;20515;-38
2023/01/11 08:26:57;;;;;;;12.93;2.78;;;9.70;99.90;;;;;;4994166;28;20038;-39
2023/01/11 08:29:24;;;;;;;20.27;3.50;;;9.70;99.90;;;;;;4994066;28;20034;-39
2023/01/11 08:31:50;;;;;;;11.05;3.03;;;9.60;99.90;;;;;;4994319;28;20109;-39
2023/01/11 08:34:16;;;;;;;9.20;2.53;;;9.60;99.90;;;;;;4994255;28;20038;-39
2023/01/11 08:36:42;;;;;;;16.08;3.60;;;9.50;99.90;;;;;;4993950;28;20366;-39
2023/01/11 08:39:09;;;;;;;12.63;2.83;;;9.50;99.90;;;;;;4994160;28;20042;-39
2023/01/11 08:41:35;;;;;;;11.00;2.80;;;9.40;99.90;;;;;;4994710;28;20513;-38
2023/01/11 08:44:00;;;;;;;12.43;2.45;;;9.40;99.90;;;;;;4994088;28;20070;-39
2023/01/11 08:46:26;;;;;;;12.25;2.53;;;9.30;99.90;;;;;;4993805;28;20042;-38
2023/01/11 08:48:52;;;;;;;10.52;2.50;;;9.30;99.90;;;;;;4993780;28;20035;-39
2023/01/11 08:51:19;;;;;;;12.20;3.15;;;9.30;99.90;;;;;;4993887;28;20412;-39
2023/01/11 08:53:45;;;;;;;13.10;2.45;;;9.20;99.90;;;;;;4993515;28;20097;-39
2023/01/11 08:56:11;;;;;;;11.13;2.30;;;9.20;99.90;;;;;;4993605;28;20048;-39
2023/01/11 08:58:37;;;;;;;16.42;3.15;;;9.20;99.90;;;;;;4993515;28;20046;-38
2023/01/11 09:01:06;;;;;;;14.10;3.10;;;9.10;99.90;;;;;;4977279;28;20048;-38
2023/01/11 09:03:33;;;;;;;12.88;2.97;;;9.10;99.90;;;;;;4993952;28;20484;-39
2023/01/11 09:05:59;;;;;;;15.13;2.90;;;9.10;99.90;;;;;;4993982;28;20121;-38
2023/01/11 09:08:26;;;;;;;12.35;3.00;;;9.20;99.90;;;;;;4993815;28;20403;-39
2023/01/11 09:10:52;;;;;;;12.68;3.53;;;9.10;99.90;;;;;;4993119;28;20038;-38
2023/01/11 09:13:17;;;;;;;13.05;3.10;;;9.10;99.90;;;;;;4993493;28;20100;-39
2023/01/11 09:15:45;;;;;;;16.05;3.78;;;9.10;99.90;;;;;;4999282;28;20045;-39
2023/01/11 09:18:12;;;;;;;20.65;3.78;;;9.10;99.90;;;;;;5012952;28;20091;-38
2023/01/11 09:20:37;;;;;;;16.83;3.80;;;9.20;99.90;;;;;;5012679;28;20053;-38
2023/01/11 09:23:03;;;;;;;18.30;4.45;;;9.20;99.90;;;;;;5012537;28;20045;-39
2023/01/11 09:25:29;;;;;;;27.45;8.25;;;9.30;99.90;;;;;;5012919;28;20030;-39
2023/01/11 09:27:55;;;;;;;17.48;4.85;;;9.30;99.90;;;;;;5013696;28;20041;-39
2023/01/11 09:30:22;;;;;;;18.13;4.95;;;9.30;99.90;;;;;;5012460;28;20037;-38
2023/01/11 09:32:49;;;;;;;36.22;11.13;;;9.30;99.90;;;;;;5012583;28;20037;-38
2023/01/11 09:35:16;;;;;;;15.90;3.67;;;9.20;99.90;;;;;;5012514;28;20034;-39
2023/01/11 09:37:50;;;;;;;22.13;6.30;;;9.20;99.90;;;;;;5012591;28;20128;-39
2023/01/11 09:40:45;;;;;;;31.50;12.70;;;9.20;99.90;;;;;;5012536;28;20487;-39
2023/01/11 09:43:15;;;;;;;30.25;11.73;;;9.20;99.90;;;;;;5012586;28;20046;-39
2023/01/11 09:45:45;;;;;;;21.83;7.03;;;9.20;99.90;;;;;;5012742;28;20196;-39
2023/01/11 09:48:49;;;;;;;13.77;5.07;;;9.10;99.90;;;;;;5014066;28;20042;-39
2023/01/11 09:51:17;;;;;;;20.40;4.82;;;9.20;99.90;;;;;;5027101;28;20080;-38
2023/01/11 09:53:49;;;;;;;19.35;5.97;;;9.20;99.90;;;;;;5030885;28;20041;-39
2023/01/11 09:56:23;;;;;;;25.52;10.98;;;9.20;99.90;;;;;;5032197;28;20475;-39
2023/01/11 09:59:05;;;;;;;19.73;9.65;;;9.30;99.90;;;;;;5031998;28;20042;-38
2023/01/11 10:01:44;;;;;;;19.02;6.65;;;9.30;99.90;;;;;;5031957;28;20056;-38
2023/01/11 10:04:37;;;;;;;16.65;7.45;;;9.30;99.90;;;;;;5031795;28;20472;-38
2023/01/11 10:07:05;;;;;;;22.80;5.65;;;9.20;99.90;;;;;;5031905;28;20503;-38
2023/01/11 10:09:38;;;;;;;17.20;4.97;;;9.20;99.90;;;;;;5031861;28;20033;-38
2023/01/11 10:12:04;;;;;;;;;;;9.20;99.90;;;;;;5032114;28;20368;-38
2023/01/11 10:15:05;;;;;;;16.40;8.82;;;9.20;99.90;;;;;;5031435;28;19917;-38
2023/01/11 10:17:37;;;;;;;19.80;5.70;;;9.30;99.90;;;;;;5031787;28;20410;-38
2023/01/11 10:20:27;;;;;;;19.60;5.78;;;9.30;99.90;;;;;;5032863;28;20053;-39
2023/01/11 10:23:24;;;;;;;16.85;7.30;;;9.30;99.90;;;;;;5031422;28;20376;-39
2023/01/11 10:25:55;;;;;;;15.45;4.60;;;9.20;99.90;;;;;;5031189;28;20049;-39
2023/01/11 10:28:34;;;;;;;12.20;4.35;;;9.30;99.90;;;;;;5031309;28;20063;-38
2023/01/11 10:31:28;;;;;;;16.40;4.82;;;9.40;99.90;;;;;;5031184;28;20045;-39
2023/01/11 10:38:06;;;;;;;16.08;6.07;;;9.70;99.90;;;;;;5012566;28;20045;-38
2023/01/11 10:40:33;;;;;;;21.17;7.22;;;9.70;99.90;;;;;;5004319;28;20419;-38
2023/01/11 10:43:03;;;;;;;14.45;3.50;;;9.80;99.90;;;;;;5011597;28;20041;-39
2023/01/11 10:45:54;;;;;;;16.45;6.10;;;9.90;99.90;;;;;;4994865;28;20050;-39
2023/01/11 10:48:32;;;;;;;13.27;5.05;;;9.70;99.90;;;;;;5012408;28;20037;-38
2023/01/11 10:51:30;;;;;;;16.75;4.80;;;9.70;99.90;;;;;;5011368;28;20044;-38
2023/01/11 10:54:20;;;;;;;14.85;5.68;;;9.70;99.90;;;;;;5011453;28;20041;-39
2023/01/11 10:56:58;;;;;;;14.55;4.50;;;9.70;99.90;;;;;;5011027;28;20107;-38
2023/01/11 10:59:33;;;;;;;14.25;4.70;;;9.70;99.90;;;;;;5011381;28;20424;-38
2023/01/11 11:02:08;;;;;;;21.60;5.00;;;9.80;99.90;;;;;;5011134;28;20143;-38
2023/01/11 11:04:46;;;;;;;12.55;4.32;;;10.00;99.90;;;;;;5010692;28;20056;-38
2023/01/11 11:07:43;;;;;;;16.80;4.93;;;10.10;99.90;;;;;;5012208;28;20044;-38
2023/01/11 11:10:15;;;;;;;15.68;5.18;;;10.20;99.90;;;;;;5011028;28;20034;-39
2023/01/11 11:12:58;;;;;;;24.48;5.57;;;10.50;99.90;;;;;;5010782;28;20044;-39
2023/01/11 11:15:45;;;;;;;15.43;4.47;;;11.00;99.90;;;;;;5010736;28;20042;-38
2023/01/11 11:18:11;;;;;;;13.77;4.03;;;11.20;99.90;;;;;;5011165;28;20541;-38
2023/01/11 11:20:37;;;;;;;19.92;4.57;;;11.20;99.90;;;;;;5011077;28;20045;-38
2023/01/11 11:23:03;;;;;;;13.02;3.83;;;11.20;99.90;;;;;;5009970;28;20157;-39
2023/01/11 11:25:38;;;;;;;10.90;3.47;;;11.30;99.90;;;;;;5009509;28;20443;-38
2023/01/11 11:28:05;;;;;;;20.15;4.28;;;11.60;99.90;;;;;;5011208;28;20033;-39
2023/01/11 11:30:37;;;;;;;15.23;5.07;;;11.90;99.90;;;;;;5010186;28;20500;-38
2023/01/11 11:33:28;;;;;;;14.63;4.65;;;12.10;99.90;;;;;;5011126;28;20396;-39
2023/01/11 11:36:03;;;;;;;14.48;4.47;;;12.10;99.90;;;;;;5004930;28;20058;-39
2023/01/11 11:38:37;;;;;;;12.27;3.42;;;12.00;99.90;;;;;;5010983;28;20044;-38
2023/01/11 11:41:08;;;;;;;14.75;4.40;;;11.90;99.90;;;;;;5010920;28;20117;-38
2023/01/11 11:43:44;;;;;;;11.32;4.65;;;11.90;99.90;;;;;;5026205;28;20056;-38
2023/01/11 11:46:13;;;;;;;16.05;6.15;;;12.00;99.90;;;;;;5030425;28;20033;-38
2023/01/11 11:48:39;;;;;;;14.07;5.15;;;12.20;99.90;;;;;;5046831;28;20033;-38
2023/01/11 11:51:11;;;;;;;18.23;5.93;;;12.60;99.90;;;;;;5030568;28;20120;-39
2023/01/11 11:53:42;;;;;;;10.68;3.38;;;13.10;99.90;;;;;;5030566;28;20041;-39
2023/01/11 11:56:19;;;;;;;13.57;4.60;;;12.90;99.90;;;;;;5030494;28;20479;-38
2023/01/11 11:58:46;;;;;;;14.18;4.85;;;12.50;99.90;;;;;;5030296;28;20120;-38
2023/01/11 12:01:31;;;;;;;13.35;3.83;;;12.30;99.90;;;;;;5030505;28;20126;-39
2023/01/11 12:04:10;;;;;;;13.93;3.40;;;12.20;99.90;;;;;;5030057;28;20218;-39
2023/01/11 12:06:36;;;;;;;11.32;3.08;;;12.20;99.90;;;;;;5030256;28;20037;-39
2023/01/11 12:09:03;;;;;;;15.82;3.80;;;11.80;99.90;;;;;;5030493;28;20033;-39
2023/01/11 12:11:33;;;;;;;14.77;3.38;;;11.60;99.90;;;;;;5030383;28;20076;-39
2023/01/11 12:14:14;;;;;;;12.90;3.45;;;11.90;99.90;;;;;;5024918;28;20042;-38
2023/01/11 12:16:42;;;;;;;9.50;2.95;;;12.40;99.90;;;;;;5012459;28;20399;-38
2023/01/11 12:19:33;;;;;;;15.40;3.35;;;13.00;99.90;;;;;;5013871;28;20038;-38
2023/01/11 12:22:20;;;;;;;14.38;3.17;;;13.50;99.90;;;;;;5014111;28;20618;-39
2023/01/11 12:25:07;;;;;;;13.48;3.60;;;13.40;99.90;;;;;;5013988;28;20053;-38
2023/01/11 12:27:46;;;;;;;13.85;3.15;;;13.10;99.90;;;;;;4996995;28;20037;-39
2023/01/11 12:30:40;;;;;;;12.98;3.50;;;12.60;99.90;;;;;;5014118;28;20042;-39
2023/01/11 12:33:43;;;;;;;15.63;3.30;;;11.90;99.90;;;;;;5011771;28;20046;-38
2023/01/11 12:36:44;;;;;;;15.15;4.45;;;11.80;99.90;;;;;;5003090;28;20035;-38
2023/01/11 12:39:32;;;;;;;16.10;5.57;;;11.60;99.90;;;;;;4993986;28;20039;-38
2023/01/11 12:42:22;;;;;;;21.45;6.10;;;11.50;99.90;;;;;;5010680;28;20044;-38
2023/01/11 12:45:18;;;;;;;13.38;3.67;;;11.40;99.90;;;;;;5049663;28;20049;-39
2023/01/11 12:48:05;;;;;;;18.70;5.85;;;11.60;99.90;;;;;;5033229;28;20045;-38
2023/01/11 12:50:44;;;;;;;16.05;3.60;;;12.30;99.90;;;;;;5037553;28;20399;-38
2023/01/11 12:53:42;;;;;;;15.75;4.82;;;13.10;99.90;;;;;;4993995;28;20476;-39
2023/01/11 12:56:38;;;;;;;9.93;4.18;;;13.20;99.90;;;;;;4971158;28;20042;-38
2023/01/11 12:59:49;;;;;;;12.38;3.33;;;12.90;99.90;;;;;;4993878;28;20053;-39
2023/01/11 13:02:49;;;;;;;13.55;3.75;;;13.00;99.90;;;;;;4970914;28;20492;-38
2023/01/11 13:05:38;;;;;;;14.82;3.47;;;13.30;99.90;;;;;;5023376;28;20045;-39
2023/01/11 13:08:13;;;;;;;10.20;2.63;;;12.90;99.90;;;;;;5012276;28;20041;-38
2023/01/11 13:11:34;;;;;;;13.80;3.42;;;12.30;99.90;;;;;;5012944;28;20033;-38
2023/01/11 13:14:22;;;;;;;14.85;2.97;;;11.80;99.90;;;;;;5006324;28;20089;-38
2023/01/11 13:17:33;;;;;;;12.50;3.40;;;11.60;99.90;;;;;;5013913;28;20042;-38
2023/01/11 13:20:20;;;;;;;11.70;2.60;;;11.60;99.90;;;;;;4973232;28;20100;-38
2023/01/11 13:22:52;;;;;;;15.13;3.58;;;11.60;99.90;;;;;;5012545;28;20048;-38
2023/01/11 13:25:23;;;;;;;8.75;2.63;;;11.70;99.90;;;;;;5012839;28;20064;-38
2023/01/11 13:27:50;;;;;;;9.85;2.70;;;12.00;99.90;;;;;;5012827;28;20045;-38
2023/01/11 13:30:18;;;;;;;17.40;3.40;;;11.90;99.90;;;;;;5012791;28;20034;-38
2023/01/11 13:32:57;;;;;;;10.95;3.00;;;11.80;99.90;;;;;;5012766;28;20053;-38
2023/01/11 13:35:36;;;;;;;13.70;3.42;;;11.60;99.90;;;;;;5012419;28;20037;-38